createdAt,value
2022-10-25T00:02:06.268Z,20.43
2022-10-25T00:05:11.594Z,20.43
2022-10-25T00:08:13.872Z,20.42
2022-10-25T00:11:23.117Z,20.43
2022-10-25T00:14:25.282Z,20.42
2022-10-25T00:17:27.723Z,20.42
2022-10-25T00:20:29.965Z,20.41
2022-10-25T00:23:32.154Z,20.42
2022-10-25T00:26:35.104Z,20.41
2022-10-25T00:29:37.326Z,20.42
2022-10-25T00:32:39.491Z,20.41
2022-10-25T00:35:41.669Z,20.41
2022-10-25T00:38:45.536Z,20.41
2022-10-25T00:41:47.756Z,20.38
2022-10-25T00:45:01.321Z,20.40
2022-10-25T00:48:10.098Z,20.40
2022-10-25T00:51:12.489Z,20.40
2022-10-25T00:54:20.228Z,20.41
2022-10-25T00:57:31.400Z,20.40
2022-10-25T01:00:36.311Z,20.41
2022-10-25T01:03:40.612Z,20.40
2022-10-25T01:06:47.469Z,20.39
2022-10-25T01:09:51.353Z,20.39
2022-10-25T01:12:54.376Z,20.39
2022-10-25T01:16:38.296Z,20.39
2022-10-25T01:20:14.534Z,20.38
2022-10-25T01:23:37.126Z,20.39
2022-10-25T01:27:20.754Z,20.38
2022-10-25T01:30:24.196Z,20.37
2022-10-25T01:33:43.793Z,20.37
2022-10-25T01:37:16.601Z,20.37
2022-10-25T01:40:49.441Z,20.36
2022-10-25T01:44:30.683Z,20.37
2022-10-25T01:47:57.547Z,20.36
2022-10-25T01:51:08.994Z,20.36
2022-10-25T01:54:24.933Z,20.36
2022-10-25T01:57:36.934Z,20.36
2022-10-25T02:01:12.581Z,20.36
2022-10-25T02:04:26.945Z,20.36
2022-10-25T02:07:36.537Z,20.36
2022-10-25T02:10:42.789Z,20.35
2022-10-25T02:14:20.400Z,20.35
2022-10-25T02:17:27.454Z,20.34
2022-10-25T02:20:34.247Z,20.33
2022-10-25T02:23:37.816Z,20.33
2022-10-25T02:26:42.321Z,20.34
2022-10-25T02:29:45.432Z,20.33
2022-10-25T02:32:47.689Z,20.33
2022-10-25T02:36:28.794Z,20.33
2022-10-25T02:39:31.695Z,20.32
2022-10-25T02:42:34.187Z,20.31
2022-10-25T02:45:36.371Z,20.31
2022-10-25T02:48:38.934Z,20.30
2022-10-25T02:51:41.154Z,20.29
2022-10-25T02:54:43.392Z,20.29
2022-10-25T02:57:45.531Z,20.29
2022-10-25T03:00:48.668Z,20.29
2022-10-25T03:03:51.686Z,20.27
2022-10-25T03:06:54.254Z,20.26
2022-10-25T03:09:56.441Z,20.26
2022-10-25T03:12:58.653Z,20.25
2022-10-25T03:16:00.864Z,20.25
2022-10-25T03:19:03.191Z,20.24
2022-10-25T03:22:05.477Z,20.24
2022-10-25T03:28:11.241Z,20.23
2022-10-25T03:31:15.928Z,20.23
2022-10-25T03:34:18.382Z,20.23
2022-10-25T03:37:20.535Z,20.23
2022-10-25T03:40:24.322Z,20.23
2022-10-25T03:43:27.094Z,20.22
2022-10-25T03:46:29.310Z,20.21
2022-10-25T03:49:31.501Z,20.21
2022-10-25T03:52:33.774Z,20.22
2022-10-25T03:55:36.769Z,20.22
2022-10-25T03:58:39.016Z,20.21
2022-10-25T04:01:41.299Z,20.21
2022-10-25T04:04:43.712Z,20.20
2022-10-25T04:07:46.206Z,20.22
2022-10-25T04:10:48.599Z,20.21
2022-10-25T04:13:50.767Z,20.21
2022-10-25T04:16:52.934Z,20.22
2022-10-25T04:19:55.120Z,20.22
2022-10-25T04:22:58.286Z,20.22
2022-10-25T04:26:00.576Z,20.21
2022-10-25T04:29:04.961Z,20.21
2022-10-25T04:32:07.283Z,20.20
2022-10-25T04:35:09.953Z,20.20
2022-10-25T04:38:12.104Z,20.20
2022-10-25T04:41:14.497Z,20.20
2022-10-25T04:44:16.748Z,20.20
2022-10-25T04:47:18.926Z,20.20
2022-10-25T04:50:21.152Z,20.19
2022-10-25T04:53:23.369Z,20.19
2022-10-25T04:56:25.545Z,20.19
2022-10-25T04:59:27.722Z,20.19
2022-10-25T05:02:30.015Z,20.18
2022-10-25T05:05:32.236Z,20.20
2022-10-25T05:08:34.927Z,20.19
2022-10-25T05:14:44.371Z,20.19
2022-10-25T05:17:46.537Z,20.18
2022-10-25T05:20:55.853Z,20.18
2022-10-25T05:24:01.770Z,20.18
2022-10-25T05:27:04.844Z,20.18
2022-10-25T05:30:07.660Z,20.16
2022-10-25T05:33:10.321Z,20.17
2022-10-25T05:36:14.064Z,20.18
2022-10-25T05:39:16.250Z,20.19
2022-10-25T05:42:18.489Z,20.17
2022-10-25T05:45:20.784Z,20.19
2022-10-25T05:48:23.043Z,20.20
2022-10-25T05:51:36.188Z,20.20
2022-10-25T05:54:38.685Z,20.23
2022-10-25T05:57:40.830Z,20.27
2022-10-25T06:00:42.986Z,20.31
2022-10-25T06:03:48.974Z,20.33
2022-10-25T06:06:52.206Z,20.35
2022-10-25T06:09:54.446Z,20.38
2022-10-25T06:12:56.728Z,20.38
2022-10-25T06:15:58.993Z,20.40
2022-10-25T06:19:03.743Z,20.42
2022-10-25T06:22:05.961Z,20.44
2022-10-25T06:25:08.663Z,20.47
2022-10-25T06:28:10.919Z,20.51
2022-10-25T06:31:18.558Z,20.55
2022-10-25T06:34:23.315Z,20.57
2022-10-25T06:37:27.377Z,20.58
2022-10-25T06:40:29.935Z,20.61
2022-10-25T06:43:34.889Z,20.62
2022-10-25T06:50:03.607Z,20.68
2022-10-25T06:53:05.974Z,20.71
2022-10-25T06:56:14.475Z,20.75
2022-10-25T06:59:17.885Z,20.80
2022-10-25T07:02:20.165Z,20.82
2022-10-25T07:05:22.773Z,20.83
2022-10-25T07:08:24.997Z,20.82
2022-10-25T07:11:29.724Z,20.84
2022-10-25T07:14:31.906Z,20.85
2022-10-25T07:17:34.161Z,20.87
2022-10-25T07:20:36.347Z,20.87
2022-10-25T07:23:42.443Z,20.88
2022-10-25T07:26:45.135Z,20.89
2022-10-25T07:29:48.790Z,20.90
2022-10-25T07:32:50.974Z,20.97
2022-10-25T07:36:06.205Z,20.97
2022-10-25T07:39:12.555Z,20.98
2022-10-25T07:42:14.725Z,20.99
2022-10-25T07:45:20.333Z,21.01
2022-10-25T07:48:25.874Z,21.00
2022-10-25T07:51:28.097Z,21.00
2022-10-25T07:54:30.332Z,21.00
2022-10-25T07:57:32.564Z,21.02
2022-10-25T08:00:36.128Z,21.04
2022-10-25T08:03:38.475Z,21.05
2022-10-25T08:06:40.795Z,21.08
2022-10-25T08:09:42.957Z,21.09
2022-10-25T08:12:45.112Z,21.09
2022-10-25T08:15:55.331Z,21.11
2022-10-25T08:18:57.575Z,21.13
2022-10-25T08:21:59.830Z,21.14
2022-10-25T08:25:04.455Z,21.18
2022-10-25T08:28:07.016Z,21.21
2022-10-25T08:31:10.421Z,21.23
2022-10-25T08:34:12.624Z,21.25
2022-10-25T08:37:14.868Z,21.27
2022-10-25T08:40:28.065Z,21.31
2022-10-25T08:43:49.077Z,21.33
2022-10-25T08:46:54.108Z,21.36
2022-10-25T08:50:16.822Z,21.38
2022-10-25T08:53:25.054Z,21.41
2022-10-25T08:56:28.665Z,21.44
2022-10-25T08:59:35.461Z,21.46
2022-10-25T09:02:59.625Z,21.49
2022-10-25T09:06:39.423Z,21.52
2022-10-25T09:09:51.309Z,21.50
2022-10-25T09:13:23.229Z,21.51
2022-10-25T09:16:36.192Z,21.52
2022-10-25T09:20:00.571Z,21.51
2022-10-25T09:23:23.199Z,21.49
2022-10-25T09:26:38.302Z,21.49
2022-10-25T09:29:56.565Z,21.49
2022-10-25T09:33:03.027Z,21.49
2022-10-25T09:36:09.485Z,21.50
2022-10-25T09:39:40.454Z,21.52
2022-10-25T09:42:52.077Z,21.52
2022-10-25T09:46:03.722Z,21.53
2022-10-25T09:49:16.083Z,21.54
2022-10-25T09:52:44.220Z,21.56
2022-10-25T09:55:58.782Z,21.57
2022-10-25T09:59:04.413Z,21.59
2022-10-25T10:02:15.445Z,21.59
2022-10-25T10:05:22.403Z,21.60
2022-10-25T10:08:26.187Z,21.59
2022-10-25T10:11:29.395Z,21.59
2022-10-25T10:14:38.286Z,21.60
2022-10-25T10:17:40.487Z,21.60
2022-10-25T10:20:58.366Z,21.60
2022-10-25T10:24:05.770Z,21.59
2022-10-25T10:27:24.163Z,21.56
2022-10-25T10:30:28.964Z,21.55
2022-10-25T10:33:33.180Z,21.54
2022-10-25T10:36:35.632Z,21.52
2022-10-25T10:39:54.772Z,21.53
2022-10-25T10:42:59.071Z,21.52
2022-10-25T10:46:04.654Z,21.53
2022-10-25T10:49:10.290Z,21.53
2022-10-25T10:52:30.740Z,21.53
2022-10-25T10:55:35.525Z,21.53
2022-10-25T10:58:39.604Z,21.54
2022-10-25T11:01:42.099Z,21.56
2022-10-25T11:04:55.914Z,21.55
2022-10-25T11:08:08.458Z,21.56
2022-10-25T11:11:22.288Z,21.57
2022-10-25T11:14:24.478Z,21.59
2022-10-25T11:17:37.276Z,21.60
2022-10-25T11:20:47.835Z,21.60
2022-10-25T11:24:13.718Z,21.64
2022-10-25T11:27:46.715Z,21.65
2022-10-25T11:31:07.976Z,21.68
2022-10-25T11:35:01.700Z,21.69
2022-10-25T11:38:45.897Z,21.69
2022-10-25T11:41:51.779Z,21.70
2022-10-25T11:45:18.591Z,21.71
2022-10-25T11:48:45.688Z,21.71
2022-10-25T11:55:17.588Z,21.71
2022-10-25T11:58:41.301Z,21.72
2022-10-25T12:02:17.920Z,21.72
2022-10-25T12:05:46.783Z,21.72
2022-10-25T12:08:58.177Z,21.72
2022-10-25T12:12:05.977Z,21.72
2022-10-25T12:15:16.799Z,21.72
2022-10-25T12:18:26.169Z,21.73
2022-10-25T12:21:35.671Z,21.74
2022-10-25T12:24:49.405Z,21.73
2022-10-25T12:28:03.936Z,21.75
2022-10-25T12:31:28.375Z,21.75
2022-10-25T12:34:45.665Z,21.75
2022-10-25T12:37:57.874Z,21.75
2022-10-25T12:41:08.743Z,21.75
2022-10-25T12:44:23.614Z,21.76
2022-10-25T12:47:34.512Z,21.75
2022-10-25T12:51:06.392Z,21.76
2022-10-25T12:54:30.197Z,21.75
2022-10-25T12:57:54.815Z,21.75
2022-10-25T13:01:15.783Z,21.76
2022-10-25T13:04:57.516Z,21.75
2022-10-25T13:08:03.051Z,21.78
2022-10-25T13:11:07.896Z,21.79
2022-10-25T13:14:23.920Z,21.78
2022-10-25T13:17:26.046Z,21.78
2022-10-25T13:20:34.341Z,21.76
2022-10-25T13:23:42.605Z,21.75
2022-10-25T13:27:12.545Z,21.75
2022-10-25T13:30:27.965Z,21.74
2022-10-25T13:33:33.409Z,21.74
2022-10-25T13:36:54.323Z,21.74
2022-10-25T13:39:59.605Z,21.74
2022-10-25T13:43:05.442Z,21.74
2022-10-25T13:46:11.361Z,21.73
2022-10-25T13:49:28.428Z,21.74
2022-10-25T13:52:34.186Z,21.74
2022-10-25T13:55:46.876Z,21.76
2022-10-25T13:58:51.427Z,21.76
2022-10-25T14:01:53.932Z,21.77
2022-10-25T14:04:56.208Z,21.78
2022-10-25T14:08:19.062Z,21.79
2022-10-25T14:11:33.322Z,21.80
2022-10-25T14:14:47.462Z,21.82
2022-10-25T14:17:50.635Z,21.82
2022-10-25T14:21:00.697Z,21.79
2022-10-25T14:24:11.581Z,21.79
2022-10-25T14:27:32.204Z,21.77
2022-10-25T14:30:39.226Z,21.76
2022-10-25T14:33:56.089Z,21.75
2022-10-25T14:36:59.502Z,21.74
2022-10-25T14:40:01.782Z,21.72
2022-10-25T14:43:31.645Z,21.71
2022-10-25T14:46:34.112Z,21.68
2022-10-25T14:49:37.303Z,21.68
2022-10-25T14:52:39.481Z,21.68
2022-10-25T14:55:51.408Z,21.68
2022-10-25T14:58:54.638Z,21.66
2022-10-25T15:02:04.848Z,21.65
2022-10-25T15:05:07.931Z,21.62
2022-10-25T15:08:26.641Z,21.59
2022-10-25T15:11:28.882Z,21.57
2022-10-25T15:14:31.670Z,21.53
2022-10-25T15:17:34.809Z,21.51
2022-10-25T15:20:37.013Z,21.50
2022-10-25T15:23:41.281Z,21.47
2022-10-25T15:27:07.710Z,21.45
2022-10-25T15:30:37.789Z,21.42
2022-10-25T15:33:41.357Z,21.41
2022-10-25T15:36:44.326Z,21.38
2022-10-25T15:39:48.526Z,21.37
2022-10-25T15:42:50.675Z,21.37
2022-10-25T15:45:54.722Z,21.34
2022-10-25T15:49:03.477Z,21.33
2022-10-25T15:52:05.689Z,21.32
2022-10-25T15:55:20.657Z,21.31
2022-10-25T15:58:22.830Z,21.30
2022-10-25T16:01:25.093Z,21.28
2022-10-25T16:04:27.341Z,21.27
2022-10-25T16:07:30.583Z,21.26
2022-10-25T16:10:32.787Z,21.26
2022-10-25T16:13:37.875Z,21.24
2022-10-25T16:16:41.021Z,21.23
2022-10-25T16:19:43.618Z,21.23
2022-10-25T16:22:46.850Z,21.21
2022-10-25T16:25:49.270Z,21.20
2022-10-25T16:28:51.644Z,21.19
2022-10-25T16:31:54.080Z,21.17
2022-10-25T16:34:56.371Z,21.17
2022-10-25T16:37:59.135Z,21.15
2022-10-25T16:41:01.399Z,21.14
2022-10-25T16:44:03.727Z,21.13
2022-10-25T16:47:05.921Z,21.12
2022-10-25T16:50:08.534Z,21.12
2022-10-25T16:53:13.021Z,21.11
2022-10-25T16:56:15.433Z,21.10
2022-10-25T16:59:20.637Z,21.10
2022-10-25T17:02:25.455Z,21.08
2022-10-25T17:05:30.007Z,21.07
2022-10-25T17:08:32.191Z,21.05
2022-10-25T17:11:34.377Z,21.05
2022-10-25T17:14:36.941Z,21.04
2022-10-25T17:17:40.968Z,21.02
2022-10-25T17:20:43.157Z,21.03
2022-10-25T17:23:45.360Z,21.02
2022-10-25T17:26:47.644Z,21.01
2022-10-25T17:29:50.340Z,21.01
2022-10-25T17:32:52.556Z,21.00
2022-10-25T17:35:54.875Z,21.00
2022-10-25T17:38:57.229Z,20.99
2022-10-25T17:41:59.401Z,20.97
2022-10-25T17:45:01.605Z,20.98
2022-10-25T17:48:04.288Z,20.96
2022-10-25T17:51:09.368Z,20.96
2022-10-25T17:54:11.629Z,20.96
2022-10-25T17:57:13.858Z,20.93
2022-10-25T18:00:16.493Z,20.91
2022-10-25T18:03:18.655Z,20.91
2022-10-25T18:06:23.736Z,20.91
2022-10-25T18:09:25.881Z,20.90
2022-10-25T18:12:28.075Z,20.88
2022-10-25T18:15:30.332Z,20.88
2022-10-25T18:18:32.527Z,20.87
2022-10-25T18:21:34.774Z,20.86
2022-10-25T18:24:39.503Z,20.85
2022-10-25T18:27:41.753Z,20.86
2022-10-25T18:30:43.947Z,20.86
2022-10-25T18:33:47.820Z,20.85
2022-10-25T18:36:49.992Z,20.84
2022-10-25T18:39:52.262Z,20.84
2022-10-25T18:42:54.512Z,20.83
2022-10-25T18:45:57.519Z,20.82
2022-10-25T18:49:00.022Z,20.80
2022-10-25T18:52:02.243Z,20.78
2022-10-25T18:55:04.858Z,20.79
2022-10-25T18:58:07.154Z,20.78
2022-10-25T19:01:22.700Z,20.78
2022-10-25T19:04:25.153Z,20.78
2022-10-25T19:07:27.953Z,20.77
2022-10-25T19:10:30.164Z,20.76
2022-10-25T19:13:33.001Z,20.76
2022-10-25T19:16:35.955Z,20.74
2022-10-25T19:19:38.183Z,20.75
2022-10-25T19:22:40.336Z,20.74
2022-10-25T19:25:42.637Z,20.74
2022-10-25T19:28:45.299Z,20.74
2022-10-25T19:31:47.545Z,20.73
2022-10-25T19:37:57.110Z,20.72
2022-10-25T19:41:01.017Z,20.72
2022-10-25T19:44:03.251Z,20.71
2022-10-25T19:47:05.747Z,20.70
2022-10-25T19:50:09.070Z,20.70
2022-10-25T19:53:11.239Z,20.70
2022-10-25T19:56:14.864Z,20.71
2022-10-25T19:59:17.234Z,20.69
2022-10-25T20:02:19.541Z,20.69
2022-10-25T20:05:22.495Z,20.67
2022-10-25T20:08:24.820Z,20.67
2022-10-25T20:11:28.614Z,20.68
2022-10-25T20:14:33.341Z,20.67
2022-10-25T20:17:35.778Z,20.65
2022-10-25T20:20:38.909Z,20.66
2022-10-25T20:23:43.273Z,20.65
2022-10-25T20:26:49.573Z,20.65
2022-10-25T20:29:52.070Z,20.64
2022-10-25T20:32:54.340Z,20.65
2022-10-25T20:36:01.689Z,20.63
2022-10-25T20:39:04.226Z,20.63
2022-10-25T20:42:06.581Z,20.63
2022-10-25T20:45:08.803Z,20.62
2022-10-25T20:48:11.157Z,20.62
2022-10-25T20:51:15.609Z,20.61
2022-10-25T20:54:17.940Z,20.61
2022-10-25T20:57:20.103Z,20.60
2022-10-25T21:00:22.252Z,20.61
2022-10-25T21:03:28.644Z,20.61
2022-10-25T21:06:30.854Z,20.60
2022-10-25T21:09:33.021Z,20.59
2022-10-25T21:12:35.276Z,20.58
2022-10-25T21:15:37.554Z,20.57
2022-10-25T21:18:40.781Z,20.56
2022-10-25T21:21:42.948Z,20.57
2022-10-25T21:24:45.109Z,20.56
2022-10-25T21:27:47.678Z,20.50
2022-10-25T21:30:51.182Z,20.55
2022-10-25T21:33:56.222Z,20.55
2022-10-25T21:37:01.035Z,20.54
2022-10-25T21:40:03.379Z,20.53
2022-10-25T21:43:05.567Z,20.54
2022-10-25T21:46:07.760Z,20.52
2022-10-25T21:49:09.986Z,20.50
2022-10-25T21:52:12.217Z,20.50
2022-10-25T21:55:14.664Z,20.50
2022-10-25T21:58:16.845Z,20.49
2022-10-25T22:01:21.942Z,20.49
2022-10-25T22:04:25.148Z,20.49
2022-10-25T22:07:27.416Z,20.48
2022-10-25T22:10:29.654Z,20.48
2022-10-25T22:13:32.090Z,20.48
2022-10-25T22:16:35.189Z,20.47
2022-10-25T22:19:37.390Z,20.47
2022-10-25T22:22:39.563Z,20.43
2022-10-25T22:25:41.688Z,20.46
2022-10-25T22:28:43.860Z,20.44
2022-10-25T22:31:46.038Z,20.45
2022-10-25T22:34:48.197Z,20.44
2022-10-25T22:37:50.483Z,20.44
2022-10-25T22:41:00.924Z,20.43
2022-10-25T22:44:03.824Z,20.42
2022-10-25T22:47:06.065Z,20.42
2022-10-25T22:50:08.525Z,20.42
2022-10-25T22:53:10.689Z,20.41
2022-10-25T22:56:18.461Z,20.41
2022-10-25T22:59:21.649Z,20.40
2022-10-25T23:02:23.804Z,20.39
2022-10-25T23:05:25.931Z,20.38
2022-10-25T23:08:28.694Z,20.37
2022-10-25T23:11:33.268Z,20.37
2022-10-25T23:14:35.395Z,20.35
2022-10-25T23:17:37.622Z,20.37
2022-10-25T23:20:50.421Z,20.35
2022-10-25T23:23:54.232Z,20.36
2022-10-25T23:26:56.408Z,20.35
2022-10-25T23:29:58.577Z,20.34
2022-10-25T23:33:00.759Z,20.34
2022-10-25T23:36:15.599Z,20.34
2022-10-25T23:39:17.927Z,20.31
2022-10-25T23:42:20.100Z,20.30
2022-10-25T23:45:22.253Z,20.31
2022-10-25T23:48:24.454Z,20.31
2022-10-25T23:51:26.682Z,20.32
2022-10-25T23:54:28.839Z,20.29
2022-10-25T23:57:30.992Z,20.30
